createdAt,value
2019-03-31T00:02:11.810Z,97750.69
2019-03-31T00:05:19.316Z,97766.79
2019-03-31T00:08:26.665Z,97767.44
2019-03-31T00:11:34.971Z,97766.91
2019-03-31T00:14:42.499Z,97764.06
2019-03-31T00:17:49.504Z,97766.27
2019-03-31T00:20:56.714Z,97736.47
2019-03-31T00:24:05.369Z,97736.47
2019-03-31T00:27:12.380Z,97758.02
2019-03-31T00:30:19.059Z,97760.53
2019-03-31T00:33:27.294Z,97759.52
2019-03-31T00:36:35.477Z,97754.45
2019-03-31T00:39:43.526Z,97762.03
2019-03-31T00:42:49.614Z,97756.74
2019-03-31T00:45:56.520Z,97756.51
2019-03-31T00:49:03.962Z,97752.98
2019-03-31T00:52:11.107Z,97749.80
2019-03-31T00:55:18.708Z,97756.55
2019-03-31T00:58:26.333Z,97764.96
2019-03-31T01:01:37.065Z,97763.39
2019-03-31T01:04:45.290Z,97742.23
2019-03-31T01:07:52.304Z,97742.23
2019-03-31T01:10:59.544Z,97749.51
2019-03-31T01:14:06.943Z,97740.16
2019-03-31T01:17:18.731Z,97740.16
2019-03-31T01:20:25.269Z,97754.16
2019-03-31T01:23:32.379Z,97753.36
2019-03-31T01:26:38.662Z,97748.50
2019-03-31T01:29:45.712Z,97731.88
2019-03-31T01:32:54.448Z,97731.88
2019-03-31T01:36:01.421Z,97755.86
2019-03-31T01:39:09.628Z,97755.84
2019-03-31T01:42:16.742Z,97757.23
2019-03-31T01:45:24.335Z,97757.23
2019-03-31T01:48:31.912Z,97749.95
2019-03-31T01:51:39.323Z,97758.28
2019-03-31T01:54:46.381Z,97757.48
2019-03-31T01:57:53.975Z,97751.29
2019-03-31T02:01:02.601Z,97750.72
2019-03-31T02:04:09.769Z,97755.52
2019-03-31T02:07:17.102Z,97757.32
2019-03-31T02:10:24.287Z,97755.14
2019-03-31T02:13:31.264Z,97744.89
2019-03-31T02:16:39.331Z,97751.65
2019-03-31T02:19:46.388Z,97749.72
2019-03-31T02:22:52.664Z,97745.95
2019-03-31T02:25:59.413Z,97751.62
2019-03-31T02:29:06.539Z,97747.84
2019-03-31T02:32:23.187Z,97750.58
2019-03-31T02:35:21.280Z,97739.84
2019-03-31T02:38:28.280Z,97740.96
2019-03-31T02:41:35.933Z,97741.22
2019-03-31T02:44:42.872Z,97734.77
2019-03-31T02:47:50.005Z,97735.88
2019-03-31T02:50:57.319Z,97733.50
2019-03-31T02:54:04.633Z,97736.23
2019-03-31T02:57:11.652Z,97732.19
2019-03-31T03:00:18.936Z,97727.64
2019-03-31T03:03:26.447Z,97727.64
2019-03-31T03:06:34.792Z,97733.08
2019-03-31T03:09:42.163Z,97737.16
2019-03-31T03:12:49.257Z,97737.95
2019-03-31T03:16:10.702Z,97737.72
2019-03-31T03:19:18.353Z,97737.44
2019-03-31T03:22:26.260Z,97736.13
2019-03-31T03:25:33.295Z,97741.54
2019-03-31T03:28:40.603Z,97745.55
2019-03-31T03:31:48.451Z,97744.77
2019-03-31T03:34:55.589Z,97744.77
2019-03-31T03:38:02.417Z,97743.44
2019-03-31T03:41:10.297Z,97742.63
2019-03-31T03:44:18.100Z,97746.95
2019-03-31T03:47:25.291Z,97749.64
2019-03-31T03:50:33.339Z,97748.83
2019-03-31T03:53:39.636Z,97748.83
2019-03-31T03:56:46.037Z,97743.72
2019-03-31T03:59:53.355Z,97739.69
2019-03-31T04:02:59.806Z,97738.63
2019-03-31T04:06:06.797Z,97741.04
2019-03-31T04:09:14.251Z,97741.04
2019-03-31T04:12:22.434Z,97741.86
2019-03-31T04:15:28.590Z,97742.64
2019-03-31T04:18:35.050Z,97744.27
2019-03-31T04:21:42.287Z,97735.64
2019-03-31T04:24:49.033Z,97734.85
2019-03-31T04:27:56.311Z,97739.70
2019-03-31T04:31:02.644Z,97746.42
2019-03-31T04:34:08.614Z,97742.11
2019-03-31T04:37:15.541Z,97740.23
2019-03-31T04:40:22.728Z,97729.73
2019-03-31T04:43:30.123Z,97729.73
2019-03-31T04:46:37.294Z,97738.05
2019-03-31T04:49:43.762Z,97738.85
2019-03-31T04:52:50.624Z,97751.52
2019-03-31T04:55:58.270Z,97753.92
2019-03-31T04:59:04.697Z,97748.83
2019-03-31T05:02:11.633Z,97748.02
2019-03-31T05:05:18.682Z,97750.70
2019-03-31T05:08:26.066Z,97750.70
2019-03-31T05:11:34.014Z,97756.11
2019-03-31T05:14:43.135Z,97759.05
2019-03-31T05:17:50.634Z,97769.02
2019-03-31T05:20:57.876Z,97769.02
2019-03-31T05:24:05.240Z,97771.70
2019-03-31T05:27:12.287Z,97768.20
2019-03-31T05:30:22.940Z,97765.25
2019-03-31T05:33:30.296Z,97772.50
2019-03-31T05:36:38.239Z,97760.66
2019-03-31T05:39:45.247Z,97760.66
2019-03-31T05:42:52.470Z,97786.75
2019-03-31T05:46:00.309Z,97787.24
2019-03-31T05:49:07.332Z,97787.51
2019-03-31T05:52:14.634Z,97787.20
2019-03-31T05:55:21.719Z,97794.41
2019-03-31T05:58:29.155Z,97794.41
2019-03-31T06:01:36.940Z,97802.98
2019-03-31T06:04:44.072Z,97793.20
2019-03-31T06:07:51.410Z,97795.02
2019-03-31T06:10:59.245Z,97800.89
2019-03-31T06:14:07.236Z,97801.36
2019-03-31T06:17:14.638Z,97791.27
2019-03-31T06:20:21.833Z,97798.39
2019-03-31T06:23:30.331Z,97799.90
2019-03-31T06:26:38.012Z,97797.06
2019-03-31T06:29:45.614Z,97795.00
2019-03-31T06:32:55.467Z,97792.67
2019-03-31T06:36:03.953Z,97792.17
2019-03-31T06:39:12.264Z,97790.59
2019-03-31T06:42:20.294Z,97790.59
2019-03-31T06:45:27.750Z,97773.09
2019-03-31T06:48:34.671Z,97773.09
2019-03-31T06:51:41.908Z,97802.07
2019-03-31T06:54:49.388Z,97796.12
2019-03-31T06:57:56.402Z,97798.00
2019-03-31T07:01:03.576Z,97793.41
2019-03-31T07:04:11.639Z,97791.72
2019-03-31T07:07:18.883Z,97796.41
2019-03-31T07:10:26.677Z,97798.92
2019-03-31T07:13:35.325Z,97798.89
2019-03-31T07:16:42.689Z,97801.90
2019-03-31T07:19:50.404Z,97808.32
2019-03-31T07:22:56.775Z,97812.55
2019-03-31T07:26:03.656Z,97821.14
2019-03-31T07:29:11.816Z,97821.14
2019-03-31T07:32:19.344Z,97818.13
2019-03-31T07:35:26.001Z,97815.20
2019-03-31T07:38:39.186Z,97819.91
2019-03-31T07:41:43.735Z,97822.87
2019-03-31T07:44:51.391Z,97817.60
2019-03-31T07:47:59.288Z,97820.21
2019-03-31T07:51:07.367Z,97815.05
2019-03-31T07:54:13.677Z,97815.05
2019-03-31T07:57:21.442Z,97818.01
2019-03-31T08:00:29.826Z,97817.28
2019-03-31T08:03:37.471Z,97817.28
2019-03-31T08:06:44.953Z,97821.33
2019-03-31T08:09:52.385Z,97821.33
2019-03-31T08:13:00.058Z,97837.78
2019-03-31T08:16:07.457Z,97840.53
2019-03-31T08:19:15.051Z,97843.58
2019-03-31T08:22:22.351Z,97842.91
2019-03-31T08:25:29.418Z,97845.56
2019-03-31T08:28:37.275Z,97847.01
2019-03-31T08:31:45.627Z,97847.01
2019-03-31T08:34:54.405Z,97845.27
2019-03-31T08:38:01.821Z,97845.57
2019-03-31T08:41:09.288Z,97845.57
2019-03-31T08:44:16.679Z,97838.52
2019-03-31T08:47:25.436Z,97842.02
2019-03-31T08:50:34.938Z,97850.62
2019-03-31T08:53:43.908Z,97856.03
2019-03-31T08:56:51.692Z,97856.03
2019-03-31T08:59:59.445Z,97855.45
2019-03-31T09:03:07.238Z,97853.91
2019-03-31T09:06:16.758Z,97850.61
2019-03-31T09:09:24.613Z,97850.61
2019-03-31T09:12:30.593Z,97882.90
2019-03-31T09:15:37.541Z,97876.84
2019-03-31T09:18:46.287Z,97857.30
2019-03-31T09:21:54.976Z,97857.30
2019-03-31T09:25:03.667Z,97878.23
2019-03-31T09:28:11.788Z,97879.97
2019-03-31T09:31:21.547Z,97895.15
2019-03-31T09:34:28.642Z,97898.05
2019-03-31T09:37:36.527Z,97898.05
2019-03-31T09:40:43.954Z,97891.53
2019-03-31T09:43:52.301Z,97902.00
2019-03-31T09:46:59.265Z,97904.39
2019-03-31T09:50:11.292Z,97907.20
2019-03-31T09:53:18.287Z,97907.20
2019-03-31T09:56:26.342Z,97918.87
2019-03-31T09:59:33.710Z,97915.21
2019-03-31T10:02:40.721Z,97910.89
2019-03-31T10:05:48.433Z,97917.25
2019-03-31T10:08:55.871Z,97936.56
2019-03-31T10:12:03.622Z,97913.53
2019-03-31T10:15:11.271Z,97918.97
2019-03-31T10:18:18.482Z,97918.88
2019-03-31T10:21:25.952Z,97918.30
2019-03-31T10:24:33.317Z,97925.48
2019-03-31T10:27:39.659Z,97927.29
2019-03-31T10:30:46.581Z,97722.72
2019-03-31T10:33:53.577Z,97919.73
2019-03-31T10:37:00.589Z,97916.55
2019-03-31T10:40:09.062Z,97916.55
2019-03-31T10:43:16.144Z,97919.05
2019-03-31T10:46:26.871Z,97922.00
2019-03-31T10:49:34.387Z,97931.05
2019-03-31T10:52:41.425Z,97916.23
2019-03-31T10:55:47.627Z,97914.75
2019-03-31T10:58:53.928Z,97914.87
2019-03-31T11:02:02.345Z,97926.58
2019-03-31T11:05:08.914Z,97920.33
2019-03-31T11:08:16.278Z,97916.92
2019-03-31T11:11:23.462Z,97920.72
2019-03-31T11:14:31.465Z,97923.77
2019-03-31T11:17:38.402Z,97930.59
2019-03-31T11:20:45.713Z,97927.97
2019-03-31T11:23:54.686Z,97927.82
2019-03-31T11:27:03.450Z,97933.64
2019-03-31T11:30:12.356Z,97916.81
2019-03-31T11:33:18.919Z,97916.81
2019-03-31T11:36:26.658Z,97924.50
2019-03-31T11:39:36.390Z,97917.55
2019-03-31T11:42:43.307Z,97921.16
2019-03-31T11:45:50.921Z,97922.16
2019-03-31T11:48:59.300Z,97919.61
2019-03-31T11:52:08.759Z,97917.82
2019-03-31T11:55:18.678Z,97908.84
2019-03-31T11:58:26.288Z,97917.42
2019-03-31T12:01:35.493Z,97909.59
2019-03-31T12:04:44.006Z,97896.98
2019-03-31T12:07:51.295Z,97896.98
2019-03-31T12:10:58.957Z,97908.27
2019-03-31T12:14:06.531Z,97902.34
2019-03-31T12:17:13.741Z,97912.21
2019-03-31T12:20:23.739Z,97914.30
2019-03-31T12:23:32.541Z,97907.90
2019-03-31T12:26:39.969Z,97904.74
2019-03-31T12:29:47.302Z,97904.74
2019-03-31T12:32:57.333Z,97902.69
2019-03-31T12:36:06.683Z,97900.64
2019-03-31T12:39:15.999Z,97910.01
2019-03-31T12:42:25.323Z,97891.16
2019-03-31T12:45:33.022Z,97903.35
2019-03-31T12:48:39.980Z,97901.19
2019-03-31T12:51:50.108Z,97889.18
2019-03-31T12:54:58.083Z,97920.45
2019-03-31T12:58:05.331Z,97901.45
2019-03-31T13:01:13.321Z,97898.55
2019-03-31T13:04:20.755Z,97903.86
2019-03-31T13:07:28.389Z,97896.91
2019-03-31T13:10:34.851Z,97901.53
2019-03-31T13:13:42.301Z,97898.78
2019-03-31T13:16:49.996Z,97902.30
2019-03-31T13:19:59.989Z,97899.81
2019-03-31T13:23:07.331Z,97901.42
2019-03-31T13:26:13.669Z,97900.27
2019-03-31T13:29:20.978Z,97906.75
2019-03-31T13:32:28.273Z,97901.91
2019-03-31T13:35:36.345Z,97906.50
2019-03-31T13:38:46.735Z,97897.97
2019-03-31T13:41:54.336Z,97907.20
2019-03-31T13:45:01.545Z,97900.88
2019-03-31T13:48:10.800Z,97864.53
2019-03-31T13:51:18.775Z,97864.53
2019-03-31T13:54:26.050Z,97902.81
2019-03-31T13:57:34.209Z,97907.41
2019-03-31T14:00:41.793Z,97913.03
2019-03-31T14:03:50.455Z,97914.02
2019-03-31T14:06:58.789Z,97915.95
2019-03-31T14:10:08.474Z,97915.95
2019-03-31T14:13:16.706Z,97926.95
2019-03-31T14:16:29.029Z,97924.48
2019-03-31T14:19:36.439Z,97917.79
2019-03-31T14:22:42.692Z,97922.55
2019-03-31T14:25:49.759Z,97926.61
2019-03-31T14:28:57.273Z,97927.53
2019-03-31T14:32:05.562Z,97929.08
2019-03-31T14:35:12.714Z,97919.23
2019-03-31T14:38:20.639Z,97919.23
2019-03-31T14:41:28.357Z,97937.99
2019-03-31T14:44:35.491Z,97942.36
2019-03-31T14:47:42.641Z,97941.91
2019-03-31T14:50:50.299Z,97938.55
2019-03-31T14:53:59.313Z,97944.61
2019-03-31T14:57:10.834Z,97941.83
2019-03-31T15:00:18.087Z,97940.05
2019-03-31T15:03:27.496Z,97943.98
2019-03-31T15:06:35.474Z,97945.66
2019-03-31T15:09:42.900Z,97958.05
2019-03-31T15:12:50.340Z,97937.08
2019-03-31T15:16:00.489Z,97946.41
2019-03-31T15:19:09.363Z,97948.64
2019-03-31T15:22:16.504Z,97948.64
2019-03-31T15:25:25.293Z,97948.00
2019-03-31T15:28:31.790Z,97941.03
2019-03-31T15:31:39.364Z,97951.67
2019-03-31T15:34:48.282Z,97951.67
2019-03-31T15:37:55.372Z,97943.70
2019-03-31T15:41:03.472Z,97945.00
2019-03-31T15:44:11.281Z,97943.39
2019-03-31T15:47:20.410Z,97943.39
2019-03-31T15:50:27.293Z,97946.91
2019-03-31T15:53:34.387Z,97946.49
2019-03-31T15:56:43.289Z,97929.78
2019-03-31T15:59:53.296Z,97929.78
2019-03-31T16:02:59.638Z,97960.38
2019-03-31T16:06:07.318Z,97950.82
2019-03-31T16:09:23.463Z,97950.81
2019-03-31T16:12:26.456Z,97942.87
2019-03-31T16:15:33.419Z,97953.14
2019-03-31T16:18:41.754Z,97949.38
2019-03-31T16:21:49.295Z,97949.53
2019-03-31T16:25:00.513Z,97946.73
2019-03-31T16:28:10.051Z,97946.73
2019-03-31T16:31:21.978Z,97944.78
2019-03-31T16:34:33.274Z,97946.22
2019-03-31T16:37:40.771Z,97950.95
2019-03-31T16:40:48.438Z,97953.27
2019-03-31T16:43:55.783Z,97958.55
2019-03-31T16:47:02.960Z,97963.61
2019-03-31T16:50:10.542Z,97958.59
2019-03-31T16:53:18.442Z,97963.22
2019-03-31T16:56:25.697Z,97963.22
2019-03-31T16:59:33.241Z,97964.69
2019-03-31T17:02:42.643Z,97973.64
2019-03-31T17:05:50.827Z,97960.00
2019-03-31T17:08:58.261Z,97960.00
2019-03-31T17:12:10.619Z,97966.80
2019-03-31T17:15:19.250Z,97965.46
2019-03-31T17:18:26.948Z,97965.46
2019-03-31T17:21:36.818Z,97965.17
2019-03-31T17:24:44.734Z,97965.95
2019-03-31T17:27:52.552Z,97966.38
2019-03-31T17:31:03.521Z,97969.00
2019-03-31T17:34:11.782Z,97972.72
2019-03-31T17:37:19.597Z,97972.72
2019-03-31T17:40:27.745Z,97978.91
2019-03-31T17:43:36.376Z,97969.55
2019-03-31T17:46:43.286Z,97966.30
2019-03-31T17:49:50.648Z,97972.57
2019-03-31T17:53:00.013Z,97982.79
2019-03-31T17:56:09.309Z,97978.93
2019-03-31T17:59:15.797Z,97984.56
2019-03-31T18:02:23.462Z,97987.16
2019-03-31T18:05:31.390Z,97999.75
2019-03-31T18:08:42.723Z,97999.75
2019-03-31T18:11:51.351Z,98003.64
2019-03-31T18:14:58.275Z,98007.85
2019-03-31T18:18:05.269Z,98012.69
2019-03-31T18:21:12.452Z,98019.16
2019-03-31T18:24:18.693Z,98007.59
2019-03-31T18:27:25.755Z,98019.96
2019-03-31T18:30:35.568Z,98019.96
2019-03-31T18:33:44.298Z,98024.76
2019-03-31T18:36:51.868Z,98034.41
2019-03-31T18:40:01.802Z,98030.30
2019-03-31T18:43:09.298Z,98026.78
2019-03-31T18:46:16.750Z,98029.14
2019-03-31T18:49:24.791Z,98043.09
2019-03-31T18:52:32.752Z,98039.90
2019-03-31T18:55:48.862Z,98042.67
2019-03-31T18:58:56.002Z,98044.70
2019-03-31T19:02:24.995Z,98037.84
2019-03-31T19:05:35.258Z,98037.84
2019-03-31T19:08:41.488Z,98056.77
2019-03-31T19:11:55.536Z,98056.11
2019-03-31T19:15:17.675Z,98054.88
2019-03-31T19:18:32.658Z,98065.01
2019-03-31T19:21:44.798Z,98058.85
2019-03-31T19:25:10.301Z,98064.00
2019-03-31T19:28:29.323Z,98063.69
2019-03-31T19:31:40.645Z,98057.72
2019-03-31T19:34:50.839Z,98062.17
2019-03-31T19:38:05.262Z,98067.89
2019-03-31T19:41:27.280Z,98070.37
2019-03-31T19:44:52.430Z,98063.36
2019-03-31T19:48:18.326Z,98065.42
2019-03-31T19:51:27.778Z,98078.92
2019-03-31T19:54:46.138Z,98078.92
2019-03-31T19:57:54.764Z,98077.56
2019-03-31T20:01:07.306Z,98081.09
2019-03-31T20:04:24.679Z,98068.59
2019-03-31T20:07:37.254Z,98081.49
2019-03-31T20:10:46.378Z,98078.27
2019-03-31T20:14:13.275Z,98081.05
2019-03-31T20:17:24.998Z,98077.31
2019-03-31T20:20:40.283Z,98084.58
2019-03-31T20:23:58.432Z,98073.86
2019-03-31T20:27:18.115Z,98077.02
2019-03-31T20:30:45.285Z,98080.44
2019-03-31T20:34:12.862Z,98076.20
2019-03-31T20:37:20.583Z,98083.73
2019-03-31T20:40:39.376Z,98079.42
2019-03-31T20:43:53.612Z,98079.42
2019-03-31T20:47:00.836Z,98087.97
2019-03-31T20:50:11.887Z,98085.28
2019-03-31T20:53:19.568Z,98086.61
2019-03-31T20:56:26.504Z,98085.64
2019-03-31T20:59:33.839Z,98097.23
2019-03-31T21:02:42.560Z,98097.23
2019-03-31T21:05:49.756Z,98085.30
2019-03-31T21:08:56.820Z,98085.30
2019-03-31T21:12:04.264Z,98097.56
2019-03-31T21:15:11.307Z,98106.96
2019-03-31T21:18:19.489Z,98098.17
2019-03-31T21:21:26.438Z,98103.95
2019-03-31T21:24:33.453Z,98100.55
2019-03-31T21:27:40.384Z,98100.65
2019-03-31T21:30:47.804Z,98106.23
2019-03-31T21:33:54.725Z,98106.23
2019-03-31T21:37:01.749Z,98102.05
2019-03-31T21:40:08.954Z,98102.05
2019-03-31T21:43:16.411Z,98112.13
2019-03-31T21:46:24.541Z,98112.13
2019-03-31T21:49:32.576Z,98123.18
2019-03-31T21:52:40.427Z,98115.11
2019-03-31T21:55:48.798Z,98104.64
2019-03-31T21:58:56.435Z,98104.64
2019-03-31T22:02:03.269Z,98121.91
2019-03-31T22:05:11.936Z,98099.27
2019-03-31T22:08:19.134Z,98099.27
2019-03-31T22:11:26.301Z,98125.95
2019-03-31T22:14:34.328Z,98128.11
2019-03-31T22:17:40.899Z,98138.08
2019-03-31T22:20:48.130Z,98134.03
2019-03-31T22:23:58.030Z,98118.87
2019-03-31T22:27:05.407Z,98118.87
2019-03-31T22:30:12.603Z,98138.54
2019-03-31T22:33:18.849Z,98129.91
2019-03-31T22:36:26.306Z,98139.03
2019-03-31T22:39:33.338Z,98136.05
2019-03-31T22:42:40.439Z,98138.18
2019-03-31T22:45:46.732Z,98136.00
2019-03-31T22:48:54.180Z,98124.83
2019-03-31T22:52:01.540Z,98124.83
2019-03-31T22:55:08.913Z,98137.73
2019-03-31T22:58:16.372Z,98137.73
2019-03-31T23:01:24.235Z,98133.39
2019-03-31T23:04:30.647Z,98129.91
2019-03-31T23:07:37.508Z,98117.67
2019-03-31T23:10:44.933Z,98127.65
2019-03-31T23:13:51.928Z,98127.65
2019-03-31T23:16:59.570Z,98127.13
2019-03-31T23:20:07.799Z,98125.47
2019-03-31T23:23:14.663Z,98125.47
2019-03-31T23:26:22.303Z,98118.98
2019-03-31T23:29:29.344Z,98118.98
2019-03-31T23:32:36.677Z,98119.77
2019-03-31T23:35:43.743Z,98122.92
2019-03-31T23:38:51.981Z,98122.92
2019-03-31T23:41:58.975Z,98115.09
2019-03-31T23:45:08.312Z,98113.97
2019-03-31T23:48:15.335Z,98109.36
2019-03-31T23:51:22.311Z,98114.99
2019-03-31T23:54:29.641Z,98102.57
2019-03-31T23:57:39.776Z,98111.14
